sensor_id;sensor_type;location;lat;lon;timestamp;pressure;altitude;pressure_sealevel;temperature;humidity
83448;BME280;73376;45.472;-73.568;2023-12-22T00:02:17;103450.75;;;-5.06;43.17
83448;BME280;73376;45.472;-73.568;2023-12-22T00:04:43;103450.97;;;-5.13;43.13
83448;BME280;73376;45.472;-73.568;2023-12-22T00:07:09;103452.75;;;-5.14;43.13
83448;BME280;73376;45.472;-73.568;2023-12-22T00:09:38;103450.25;;;-5.18;43.27
83448;BME280;73376;45.472;-73.568;2023-12-22T00:12:04;103425.91;;;-5.37;43.20
83448;BME280;73376;45.472;-73.568;2023-12-22T00:14:32;103441.03;;;-5.36;43.23
83448;BME280;73376;45.472;-73.568;2023-12-22T00:16:58;103451.53;;;-5.32;43.33
83448;BME280;73376;45.472;-73.568;2023-12-22T00:19:24;103444.66;;;-5.39;43.43
83448;BME280;73376;45.472;-73.568;2023-12-22T00:21:50;103449.13;;;-5.39;43.95
83448;BME280;73376;45.472;-73.568;2023-12-22T00:24:16;103416.75;;;-5.57;44.20
83448;BME280;73376;45.472;-73.568;2023-12-22T00:26:42;103421.34;;;-5.62;44.10
83448;BME280;73376;45.472;-73.568;2023-12-22T00:29:08;103404.84;;;-5.75;44.09
83448;BME280;73376;45.472;-73.568;2023-12-22T00:31:34;103445.06;;;-5.53;44.48
83448;BME280;73376;45.472;-73.568;2023-12-22T00:34:02;103447.75;;;-5.54;44.63
83448;BME280;73376;45.472;-73.568;2023-12-22T00:36:28;103422.50;;;-5.71;44.54
83448;BME280;73376;45.472;-73.568;2023-12-22T00:38:54;103438.34;;;-5.66;44.60
83448;BME280;73376;45.472;-73.568;2023-12-22T00:41:20;103441.19;;;-5.72;44.65
83448;BME280;73376;45.472;-73.568;2023-12-22T00:43:46;103423.78;;;-5.84;44.85
83448;BME280;73376;45.472;-73.568;2023-12-22T00:46:13;103430.06;;;-5.86;45.03
83448;BME280;73376;45.472;-73.568;2023-12-22T00:48:39;103446.69;;;-5.78;45.31
83448;BME280;73376;45.472;-73.568;2023-12-22T00:51:08;103429.28;;;-5.90;45.37
83448;BME280;73376;45.472;-73.568;2023-12-22T00:53:34;103436.50;;;-5.93;45.35
83448;BME280;73376;45.472;-73.568;2023-12-22T00:56:03;103424.28;;;-6.01;45.56
83448;BME280;73376;45.472;-73.568;2023-12-22T00:58:32;103447.16;;;-5.93;45.88
83448;BME280;73376;45.472;-73.568;2023-12-22T01:00:58;103446.31;;;-5.96;45.87
83448;BME280;73376;45.472;-73.568;2023-12-22T01:03:29;103400.16;;;-6.27;46.32
83448;BME280;73376;45.472;-73.568;2023-12-22T01:05:55;103448.25;;;-6.01;46.18
83448;BME280;73376;45.472;-73.568;2023-12-22T01:08:20;103445.78;;;-6.08;46.19
83448;BME280;73376;45.472;-73.568;2023-12-22T01:10:46;103450.22;;;-6.09;46.54
83448;BME280;73376;45.472;-73.568;2023-12-22T01:13:13;103421.47;;;-6.27;46.86
83448;BME280;73376;45.472;-73.568;2023-12-22T01:15:39;103421.53;;;-6.30;46.40
83448;BME280;73376;45.472;-73.568;2023-12-22T01:18:05;103433.84;;;-6.26;46.91
83448;BME280;73376;45.472;-73.568;2023-12-22T01:20:31;103421.69;;;-6.36;46.68
83448;BME280;73376;45.472;-73.568;2023-12-22T01:22:57;103419.09;;;-6.38;47.32
83448;BME280;73376;45.472;-73.568;2023-12-22T01:25:23;103439.25;;;-6.29;46.76
83448;BME280;73376;45.472;-73.568;2023-12-22T01:27:49;103434.06;;;-6.34;46.91
83448;BME280;73376;45.472;-73.568;2023-12-22T01:30:18;103414.13;;;-6.52;46.82
83448;BME280;73376;45.472;-73.568;2023-12-22T01:32:47;103433.50;;;-6.47;46.99
83448;BME280;73376;45.472;-73.568;2023-12-22T01:35:12;103417.09;;;-6.64;46.96
83448;BME280;73376;45.472;-73.568;2023-12-22T01:37:39;103408.41;;;-6.71;46.98
83448;BME280;73376;45.472;-73.568;2023-12-22T01:40:06;103433.72;;;-6.56;47.50
83448;BME280;73376;45.472;-73.568;2023-12-22T01:42:32;103446.22;;;-6.58;47.83
83448;BME280;73376;45.472;-73.568;2023-12-22T01:44:58;103445.38;;;-6.60;47.91
83448;BME280;73376;45.472;-73.568;2023-12-22T01:47:25;103434.06;;;-6.68;48.47
83448;BME280;73376;45.472;-73.568;2023-12-22T01:49:52;103442.84;;;-6.64;48.12
83448;BME280;73376;45.472;-73.568;2023-12-22T01:52:18;103421.81;;;-6.75;48.27
83448;BME280;73376;45.472;-73.568;2023-12-22T01:54:47;103403.56;;;-6.89;48.07
83448;BME280;73376;45.472;-73.568;2023-12-22T01:57:13;103428.97;;;-6.77;48.16
83448;BME280;73376;45.472;-73.568;2023-12-22T01:59:44;103430.69;;;-6.76;48.39
83448;BME280;73376;45.472;-73.568;2023-12-22T02:02:13;103403.69;;;-6.95;48.65
83448;BME280;73376;45.472;-73.568;2023-12-22T02:04:39;103438.75;;;-6.79;48.80
83448;BME280;73376;45.472;-73.568;2023-12-22T02:07:06;103440.59;;;-6.81;48.83
83448;BME280;73376;45.472;-73.568;2023-12-22T02:09:34;103440.72;;;-6.86;48.65
83448;BME280;73376;45.472;-73.568;2023-12-22T02:12:01;103442.66;;;-6.93;48.65
83448;BME280;73376;45.472;-73.568;2023-12-22T02:14:27;103445.44;;;-6.99;48.71
83448;BME280;73376;45.472;-73.568;2023-12-22T02:17:15;103425.44;;;-7.15;48.71
83448;BME280;73376;45.472;-73.568;2023-12-22T02:19:48;103453.50;;;-7.03;48.82
83448;BME280;73376;45.472;-73.568;2023-12-22T02:22:16;103431.59;;;-7.13;48.78
83448;BME280;73376;45.472;-73.568;2023-12-22T02:24:45;103449.13;;;-7.04;49.28
83448;BME280;73376;45.472;-73.568;2023-12-22T02:29:50;103443.84;;;-7.06;49.42
83448;BME280;73376;45.472;-73.568;2023-12-22T02:32:32;103427.97;;;-7.10;49.32
83448;BME280;73376;45.472;-73.568;2023-12-22T02:34:58;103426.19;;;-7.10;49.78
83448;BME280;73376;45.472;-73.568;2023-12-22T02:37:28;103426.38;;;-7.16;49.60
83448;BME280;73376;45.472;-73.568;2023-12-22T02:39:58;103430.81;;;-7.18;49.92
83448;BME280;73376;45.472;-73.568;2023-12-22T02:42:26;103427.38;;;-7.22;50.03
83448;BME280;73376;45.472;-73.568;2023-12-22T02:44:58;103421.19;;;-7.24;50.00
83448;BME280;73376;45.472;-73.568;2023-12-22T02:47:24;103415.25;;;-7.33;50.03
83448;BME280;73376;45.472;-73.568;2023-12-22T02:49:50;103396.84;;;-7.44;50.67
83448;BME280;73376;45.472;-73.568;2023-12-22T02:52:16;103422.31;;;-7.32;50.27
83448;BME280;73376;45.472;-73.568;2023-12-22T02:54:42;103404.03;;;-7.48;50.62
83448;BME280;73376;45.472;-73.568;2023-12-22T02:57:08;103404.91;;;-7.47;50.47
83448;BME280;73376;45.472;-73.568;2023-12-22T02:59:34;103425.97;;;-7.38;50.34
83448;BME280;73376;45.472;-73.568;2023-12-22T03:02:00;103418.06;;;-7.41;50.48
83448;BME280;73376;45.472;-73.568;2023-12-22T03:04:26;103402.41;;;-7.53;50.38
83448;BME280;73376;45.472;-73.568;2023-12-22T03:06:52;103423.44;;;-7.44;50.54
83448;BME280;73376;45.472;-73.568;2023-12-22T03:09:18;103420.88;;;-7.49;51.00
83448;BME280;73376;45.472;-73.568;2023-12-22T03:11:44;103394.63;;;-7.63;50.83
83448;BME280;73376;45.472;-73.568;2023-12-22T03:14:10;103424.53;;;-7.54;50.83
83448;BME280;73376;45.472;-73.568;2023-12-22T03:16:36;103392.16;;;-7.72;50.98
83448;BME280;73376;45.472;-73.568;2023-12-22T03:19:04;103412.41;;;-7.66;50.72
83448;BME280;73376;45.472;-73.568;2023-12-22T03:21:30;103379.22;;;-7.87;51.11
83448;BME280;73376;45.472;-73.568;2023-12-22T03:23:56;103415.09;;;-7.68;50.96
83448;BME280;73376;45.472;-73.568;2023-12-22T03:26:22;103417.75;;;-7.68;51.28
83448;BME280;73376;45.472;-73.568;2023-12-22T03:28:48;103425.69;;;-7.66;51.33
83448;BME280;73376;45.472;-73.568;2023-12-22T03:31:14;103416.91;;;-7.70;51.29
83448;BME280;73376;45.472;-73.568;2023-12-22T03:33:40;103413.47;;;-7.75;51.56
83448;BME280;73376;45.472;-73.568;2023-12-22T03:36:08;103383.84;;;-7.97;51.73
83448;BME280;73376;45.472;-73.568;2023-12-22T03:38:37;103395.22;;;-7.90;51.53
83448;BME280;73376;45.472;-73.568;2023-12-22T03:41:03;103397.88;;;-7.92;51.50
83448;BME280;73376;45.472;-73.568;2023-12-22T03:43:29;103426.00;;;-7.81;52.08
83448;BME280;73376;45.472;-73.568;2023-12-22T03:45:57;103391.16;;;-8.08;51.67
83448;BME280;73376;45.472;-73.568;2023-12-22T03:48:23;103391.06;;;-8.05;51.81
83448;BME280;73376;45.472;-73.568;2023-12-22T03:50:52;103403.25;;;-7.95;52.06
83448;BME280;73376;45.472;-73.568;2023-12-22T03:53:18;103369.25;;;-8.18;52.15
83448;BME280;73376;45.472;-73.568;2023-12-22T03:55:46;103406.78;;;-7.93;52.34
83448;BME280;73376;45.472;-73.568;2023-12-22T03:58:12;103413.00;;;-7.95;51.93
83448;BME280;73376;45.472;-73.568;2023-12-22T04:00:38;103409.59;;;-8.00;52.19
83448;BME280;73376;45.472;-73.568;2023-12-22T04:03:04;103385.19;;;-8.19;52.52
83448;BME280;73376;45.472;-73.568;2023-12-22T04:05:30;103412.25;;;-8.00;52.55
83448;BME280;73376;45.472;-73.568;2023-12-22T04:07:56;103407.06;;;-8.06;52.56
83448;BME280;73376;45.472;-73.568;2023-12-22T04:10:22;103396.50;;;-8.10;52.73
83448;BME280;73376;45.472;-73.568;2023-12-22T04:12:48;103404.50;;;-8.11;52.53
83448;BME280;73376;45.472;-73.568;2023-12-22T04:15:14;103405.31;;;-8.07;52.79
83448;BME280;73376;45.472;-73.568;2023-12-22T04:17:40;103400.97;;;-8.12;52.58
83448;BME280;73376;45.472;-73.568;2023-12-22T04:20:07;103385.22;;;-8.22;52.44
83448;BME280;73376;45.472;-73.568;2023-12-22T04:22:35;103384.41;;;-8.24;53.04
83448;BME280;73376;45.472;-73.568;2023-12-22T04:25:04;103397.69;;;-8.24;53.67
83448;BME280;73376;45.472;-73.568;2023-12-22T04:27:31;103396.75;;;-8.22;52.85
83448;BME280;73376;45.472;-73.568;2023-12-22T04:29:57;103369.66;;;-8.38;53.01
83448;BME280;73376;45.472;-73.568;2023-12-22T04:32:23;103326.88;;;-8.66;53.04
83448;BME280;73376;45.472;-73.568;2023-12-22T04:34:49;103397.72;;;-8.27;52.91
83448;BME280;73376;45.472;-73.568;2023-12-22T04:37:15;103368.00;;;-8.43;53.02
83448;BME280;73376;45.472;-73.568;2023-12-22T04:39:41;103381.06;;;-8.36;53.04
83448;BME280;73376;45.472;-73.568;2023-12-22T04:42:07;103366.41;;;-8.53;53.17
83448;BME280;73376;45.472;-73.568;2023-12-22T04:44:33;103387.38;;;-8.40;53.10
83448;BME280;73376;45.472;-73.568;2023-12-22T04:47:00;103385.63;;;-8.41;53.01
83448;BME280;73376;45.472;-73.568;2023-12-22T04:49:29;103387.41;;;-8.41;53.86
83448;BME280;73376;45.472;-73.568;2023-12-22T04:51:55;103358.56;;;-8.58;53.56
83448;BME280;73376;45.472;-73.568;2023-12-22T04:54:21;103376.84;;;-8.44;53.59
83448;BME280;73376;45.472;-73.568;2023-12-22T04:56:47;103378.69;;;-8.48;53.38
83448;BME280;73376;45.472;-73.568;2023-12-22T04:59:15;103373.41;;;-8.48;53.45
83448;BME280;73376;45.472;-73.568;2023-12-22T05:01:41;103351.56;;;-8.64;53.59
83448;BME280;73376;45.472;-73.568;2023-12-22T05:04:08;103368.09;;;-8.49;53.62
83448;BME280;73376;45.472;-73.568;2023-12-22T05:06:38;103364.78;;;-8.61;53.66
83448;BME280;73376;45.472;-73.568;2023-12-22T05:09:04;103377.88;;;-8.53;53.95
83448;BME280;73376;45.472;-73.568;2023-12-22T05:11:30;103373.50;;;-8.54;53.81
83448;BME280;73376;45.472;-73.568;2023-12-22T05:13:58;103307.97;;;-8.97;53.98
83448;BME280;73376;45.472;-73.568;2023-12-22T05:16:27;103383.25;;;-8.56;53.67
83448;BME280;73376;45.472;-73.568;2023-12-22T05:18:55;103376.25;;;-8.59;53.95
83448;BME280;73376;45.472;-73.568;2023-12-22T05:21:20;103375.38;;;-8.61;54.22
83448;BME280;73376;45.472;-73.568;2023-12-22T05:23:46;103365.69;;;-8.63;53.96
83448;BME280;73376;45.472;-73.568;2023-12-22T05:26:17;103366.72;;;-8.69;54.17
83448;BME280;73376;45.472;-73.568;2023-12-22T05:28:43;103369.31;;;-8.67;54.52
83448;BME280;73376;45.472;-73.568;2023-12-22T05:31:12;103359.63;;;-8.70;54.11
83448;BME280;73376;45.472;-73.568;2023-12-22T05:33:38;103358.00;;;-8.75;53.98
83448;BME280;73376;45.472;-73.568;2023-12-22T05:36:04;103357.94;;;-8.74;54.62
83448;BME280;73376;45.472;-73.568;2023-12-22T05:38:37;103361.50;;;-8.75;54.30
83448;BME280;73376;45.472;-73.568;2023-12-22T05:41:04;103357.19;;;-8.81;54.58
83448;BME280;73376;45.472;-73.568;2023-12-22T05:43:30;103363.41;;;-8.82;54.66
83448;BME280;73376;45.472;-73.568;2023-12-22T05:45:56;103332.66;;;-8.93;55.00
83448;BME280;73376;45.472;-73.568;2023-12-22T05:48:22;103359.00;;;-8.83;54.56
83448;BME280;73376;45.472;-73.568;2023-12-22T05:50:48;103345.81;;;-8.87;54.37
83448;BME280;73376;45.472;-73.568;2023-12-22T05:53:16;103337.19;;;-8.98;55.04
83448;BME280;73376;45.472;-73.568;2023-12-22T05:55:45;103352.06;;;-8.91;54.68
83448;BME280;73376;45.472;-73.568;2023-12-22T05:58:11;103345.19;;;-9.01;54.62
83448;BME280;73376;45.472;-73.568;2023-12-22T06:00:37;103347.06;;;-9.07;54.87
83448;BME280;73376;45.472;-73.568;2023-12-22T06:03:03;103347.81;;;-9.00;55.26
83448;BME280;73376;45.472;-73.568;2023-12-22T06:05:29;103343.44;;;-9.04;55.37
83448;BME280;73376;45.472;-73.568;2023-12-22T06:07:55;103335.69;;;-9.13;55.06
83448;BME280;73376;45.472;-73.568;2023-12-22T06:10:21;103358.47;;;-9.05;54.92
83448;BME280;73376;45.472;-73.568;2023-12-22T06:12:47;103330.53;;;-9.24;55.12
83448;BME280;73376;45.472;-73.568;2023-12-22T06:15:13;103347.19;;;-9.16;54.94
83448;BME280;73376;45.472;-73.568;2023-12-22T06:17:39;103343.72;;;-9.21;55.04
83448;BME280;73376;45.472;-73.568;2023-12-22T06:20:05;103347.19;;;-9.16;55.52
83448;BME280;73376;45.472;-73.568;2023-12-22T06:22:32;103301.75;;;-9.45;55.19
83448;BME280;73376;45.472;-73.568;2023-12-22T06:25:00;103327.97;;;-9.29;55.40
83448;BME280;73376;45.472;-73.568;2023-12-22T06:27:28;103341.13;;;-9.24;55.50
83448;BME280;73376;45.472;-73.568;2023-12-22T06:29:56;103333.31;;;-9.30;56.25
83448;BME280;73376;45.472;-73.568;2023-12-22T06:32:22;103314.16;;;-9.47;56.00
83448;BME280;73376;45.472;-73.568;2023-12-22T06:34:48;103344.81;;;-9.33;56.24
83448;BME280;73376;45.472;-73.568;2023-12-22T06:37:14;103329.03;;;-9.40;56.06
83448;BME280;73376;45.472;-73.568;2023-12-22T06:39:40;103351.81;;;-9.29;56.13
83448;BME280;73376;45.472;-73.568;2023-12-22T06:42:09;103323.78;;;-9.43;56.52
83448;BME280;73376;45.472;-73.568;2023-12-22T06:44:37;103355.31;;;-9.28;56.60
83448;BME280;73376;45.472;-73.568;2023-12-22T06:47:03;103339.59;;;-9.37;56.56
83448;BME280;73376;45.472;-73.568;2023-12-22T06:49:32;103353.66;;;-9.34;57.18
83448;BME280;73376;45.472;-73.568;2023-12-22T06:51:58;103344.06;;;-9.42;57.08
83448;BME280;73376;45.472;-73.568;2023-12-22T06:54:24;103357.19;;;-9.33;56.77
83448;BME280;73376;45.472;-73.568;2023-12-22T06:56:52;103312.63;;;-9.64;57.22
83448;BME280;73376;45.472;-73.568;2023-12-22T06:59:18;103355.41;;;-9.34;57.33
83448;BME280;73376;45.472;-73.568;2023-12-22T07:01:44;103337.13;;;-9.51;56.82
83448;BME280;73376;45.472;-73.568;2023-12-22T07:04:10;103290.72;;;-9.75;56.82
83448;BME280;73376;45.472;-73.568;2023-12-22T07:06:36;103357.28;;;-9.41;56.80
83448;BME280;73376;45.472;-73.568;2023-12-22T07:11:38;103355.53;;;-9.40;57.32
83448;BME280;73376;45.472;-73.568;2023-12-22T07:14:04;103337.13;;;-9.51;56.87
83448;BME280;73376;45.472;-73.568;2023-12-22T07:16:30;103357.31;;;-9.42;57.03
83448;BME280;73376;45.472;-73.568;2023-12-22T07:18:56;103355.63;;;-9.46;57.15
83448;BME280;73376;45.472;-73.568;2023-12-22T07:21:24;103355.63;;;-9.46;57.36
83448;BME280;73376;45.472;-73.568;2023-12-22T07:23:50;103352.19;;;-9.55;57.17
83448;BME280;73376;45.472;-73.568;2023-12-22T07:26:16;103333.81;;;-9.64;57.65
83448;BME280;73376;45.472;-73.568;2023-12-22T07:28:42;103346.16;;;-9.63;57.59
83448;BME280;73376;45.472;-73.568;2023-12-22T07:31:08;103358.44;;;-9.57;57.82
83448;BME280;73376;45.472;-73.568;2023-12-22T07:33:34;103363.69;;;-9.54;57.48
83448;BME280;73376;45.472;-73.568;2023-12-22T07:36:00;103330.44;;;-9.75;57.47
83448;BME280;73376;45.472;-73.568;2023-12-22T07:38:26;103357.56;;;-9.58;57.86
83448;BME280;73376;45.472;-73.568;2023-12-22T07:40:52;103356.78;;;-9.64;58.03
83448;BME280;73376;45.472;-73.568;2023-12-22T07:43:18;103348.78;;;-9.63;57.96
83448;BME280;73376;45.472;-73.568;2023-12-22T07:45:46;103345.28;;;-9.63;57.85
83448;BME280;73376;45.472;-73.568;2023-12-22T07:48:13;103343.53;;;-9.66;58.18
83448;BME280;73376;45.472;-73.568;2023-12-22T07:50:40;103343.59;;;-9.69;57.99
83448;BME280;73376;45.472;-73.568;2023-12-22T07:53:10;103335.63;;;-9.69;57.71
83448;BME280;73376;45.472;-73.568;2023-12-22T07:55:36;103345.44;;;-9.74;57.59
83448;BME280;73376;45.472;-73.568;2023-12-22T07:58:04;103329.63;;;-9.80;57.99
83448;BME280;73376;45.472;-73.568;2023-12-22T08:00:31;103341.91;;;-9.74;58.09
83448;BME280;73376;45.472;-73.568;2023-12-22T08:02:59;103325.25;;;-9.81;58.49
83448;BME280;73376;45.472;-73.568;2023-12-22T08:05:26;103307.72;;;-9.90;58.24
83448;BME280;73376;45.472;-73.568;2023-12-22T08:07:52;103329.63;;;-9.80;58.10
83448;BME280;73376;45.472;-73.568;2023-12-22T08:10:18;103332.28;;;-9.82;58.72
83448;BME280;73376;45.472;-73.568;2023-12-22T08:12:44;103338.47;;;-9.83;58.43
83448;BME280;73376;45.472;-73.568;2023-12-22T08:15:11;103332.34;;;-9.85;58.15
83448;BME280;73376;45.472;-73.568;2023-12-22T08:17:39;103320.91;;;-9.88;58.26
83448;BME280;73376;45.472;-73.568;2023-12-22T08:20:11;103300.84;;;-10.02;58.44
83448;BME280;73376;45.472;-73.568;2023-12-22T08:22:37;103294.75;;;-10.08;58.70
83448;BME280;73376;45.472;-73.568;2023-12-22T08:25:03;103322.72;;;-9.90;58.74
83448;BME280;73376;45.472;-73.568;2023-12-22T08:27:29;103318.44;;;-10.01;58.72
83448;BME280;73376;45.472;-73.568;2023-12-22T08:29:55;103311.41;;;-10.03;58.86
83448;BME280;73376;45.472;-73.568;2023-12-22T08:32:21;103333.38;;;-9.96;59.01
83448;BME280;73376;45.472;-73.568;2023-12-22T08:34:47;103325.47;;;-10.00;58.71
83448;BME280;73376;45.472;-73.568;2023-12-22T08:37:13;103325.50;;;-10.01;58.73
83448;BME280;73376;45.472;-73.568;2023-12-22T08:39:39;103322.88;;;-10.03;58.95
83448;BME280;73376;45.472;-73.568;2023-12-22T08:42:05;103290.53;;;-10.25;59.54
83448;BME280;73376;45.472;-73.568;2023-12-22T08:44:31;103328.16;;;-10.01;59.59
83448;BME280;73376;45.472;-73.568;2023-12-22T08:46:57;103298.34;;;-10.14;59.46
83448;BME280;73376;45.472;-73.568;2023-12-22T08:49:23;103314.16;;;-10.11;59.10
83448;BME280;73376;45.472;-73.568;2023-12-22T08:51:49;103316.78;;;-10.09;59.30
83448;BME280;73376;45.472;-73.568;2023-12-22T08:54:15;103308.94;;;-10.17;59.26
83448;BME280;73376;45.472;-73.568;2023-12-22T08:56:43;103289.63;;;-10.22;59.38
83448;BME280;73376;45.472;-73.568;2023-12-22T08:59:09;103285.41;;;-10.32;59.57
83448;BME280;73376;45.472;-73.568;2023-12-22T09:01:35;103317.72;;;-10.12;59.52
83448;BME280;73376;45.472;-73.568;2023-12-22T09:04:01;103280.94;;;-10.30;59.76
83448;BME280;73376;45.472;-73.568;2023-12-22T09:06:27;103284.47;;;-10.30;59.76
83448;BME280;73376;45.472;-73.568;2023-12-22T09:08:53;103296.72;;;-10.24;59.65
83448;BME280;73376;45.472;-73.568;2023-12-22T09:11:20;103313.38;;;-10.17;59.90
83448;BME280;73376;45.472;-73.568;2023-12-22T09:13:46;103298.44;;;-10.23;59.89
83448;BME280;73376;45.472;-73.568;2023-12-22T09:16:13;103316.88;;;-10.15;59.99
83448;BME280;73376;45.472;-73.568;2023-12-22T09:18:41;103291.53;;;-10.30;59.93
83448;BME280;73376;45.472;-73.568;2023-12-22T09:21:10;103304.59;;;-10.23;60.07
83448;BME280;73376;45.472;-73.568;2023-12-22T09:23:36;103298.63;;;-10.32;60.42
83448;BME280;73376;45.472;-73.568;2023-12-22T09:26:02;103302.09;;;-10.30;60.13
83448;BME280;73376;45.472;-73.568;2023-12-22T09:28:30;103283.75;;;-10.44;60.20
83448;BME280;73376;45.472;-73.568;2023-12-22T09:30:56;103309.94;;;-10.24;60.61
83448;BME280;73376;45.472;-73.568;2023-12-22T09:33:22;103302.16;;;-10.35;60.58
83448;BME280;73376;45.472;-73.568;2023-12-22T09:35:50;103303.00;;;-10.33;60.44
83448;BME280;73376;45.472;-73.568;2023-12-22T09:38:19;103305.66;;;-10.31;60.11
83448;BME280;73376;45.472;-73.568;2023-12-22T09:40:47;103303.06;;;-10.36;60.23
83448;BME280;73376;45.472;-73.568;2023-12-22T09:43:14;103276.91;;;-10.59;60.63
83448;BME280;73376;45.472;-73.568;2023-12-22T09:45:41;103285.63;;;-10.54;60.31
83448;BME280;73376;45.472;-73.568;2023-12-22T09:48:07;103322.50;;;-10.38;60.82
83448;BME280;73376;45.472;-73.568;2023-12-22T09:50:37;103309.28;;;-10.43;60.58
83448;BME280;73376;45.472;-73.568;2023-12-22T09:53:04;103325.13;;;-10.38;60.69
83448;BME280;73376;45.472;-73.568;2023-12-22T09:55:32;103297.91;;;-10.48;61.22
83448;BME280;73376;45.472;-73.568;2023-12-22T09:58:01;103328.56;;;-10.33;61.61
83448;BME280;73376;45.472;-73.568;2023-12-22T10:00:29;103340.03;;;-10.31;61.36
83448;BME280;73376;45.472;-73.568;2023-12-22T10:02:59;103327.72;;;-10.32;61.13
83448;BME280;73376;45.472;-73.568;2023-12-22T10:05:27;103332.09;;;-10.33;61.66
83448;BME280;73376;45.472;-73.568;2023-12-22T10:07:54;103331.22;;;-10.33;61.36
83448;BME280;73376;45.472;-73.568;2023-12-22T10:10:21;103307.59;;;-10.47;61.96
83448;BME280;73376;45.472;-73.568;2023-12-22T10:12:54;103327.75;;;-10.35;61.42
83448;BME280;73376;45.472;-73.568;2023-12-22T10:15:24;103324.25;;;-10.40;61.62
83448;BME280;73376;45.472;-73.568;2023-12-22T10:17:51;103308.59;;;-10.56;61.34
83448;BME280;73376;45.472;-73.568;2023-12-22T10:20:17;103335.72;;;-10.38;62.25
83448;BME280;73376;45.472;-73.568;2023-12-22T10:22:43;103312.97;;;-10.55;61.83
83448;BME280;73376;45.472;-73.568;2023-12-22T10:25:09;103338.34;;;-10.40;61.60
83448;BME280;73376;45.472;-73.568;2023-12-22T10:27:36;103334.00;;;-10.44;61.85
83448;BME280;73376;45.472;-73.568;2023-12-22T10:30:03;103338.38;;;-10.41;62.07
83448;BME280;73376;45.472;-73.568;2023-12-22T10:32:31;103319.97;;;-10.49;62.05
83448;BME280;73376;45.472;-73.568;2023-12-22T10:34:57;103331.34;;;-10.42;61.97
83448;BME280;73376;45.472;-73.568;2023-12-22T10:37:23;103338.44;;;-10.46;61.91
83448;BME280;73376;45.472;-73.568;2023-12-22T10:39:53;103330.53;;;-10.46;61.94
83448;BME280;73376;45.472;-73.568;2023-12-22T10:42:19;103333.16;;;-10.46;61.80
83448;BME280;73376;45.472;-73.568;2023-12-22T10:44:46;103344.59;;;-10.45;62.11
83448;BME280;73376;45.472;-73.568;2023-12-22T10:47:13;103342.00;;;-10.50;61.98
83448;BME280;73376;45.472;-73.568;2023-12-22T10:49:39;103336.72;;;-10.50;62.06
83448;BME280;73376;45.472;-73.568;2023-12-22T10:52:05;103308.72;;;-10.68;61.96
83448;BME280;73376;45.472;-73.568;2023-12-22T10:54:31;103335.97;;;-10.61;62.11
83448;BME280;73376;45.472;-73.568;2023-12-22T10:57:00;103349.13;;;-10.57;62.16
83448;BME280;73376;45.472;-73.568;2023-12-22T10:59:29;103329.03;;;-10.73;62.03
83448;BME280;73376;45.472;-73.568;2023-12-22T11:01:58;103345.72;;;-10.68;62.06
83448;BME280;73376;45.472;-73.568;2023-12-22T11:04:29;103339.56;;;-10.68;62.24
83448;BME280;73376;45.472;-73.568;2023-12-22T11:07:03;103325.56;;;-10.78;62.62
83448;BME280;73376;45.472;-73.568;2023-12-22T11:09:31;103362.38;;;-10.61;62.44
83448;BME280;73376;45.472;-73.568;2023-12-22T11:11:58;103336.13;;;-10.78;62.23
83448;BME280;73376;45.472;-73.568;2023-12-22T11:14:26;103355.41;;;-10.70;62.36
83448;BME280;73376;45.472;-73.568;2023-12-22T11:16:54;103350.19;;;-10.73;62.81
83448;BME280;73376;45.472;-73.568;2023-12-22T11:19:20;103351.91;;;-10.69;62.59
83448;BME280;73376;45.472;-73.568;2023-12-22T11:21:50;103365.06;;;-10.63;62.92
83448;BME280;73376;45.472;-73.568;2023-12-22T11:24:18;103332.69;;;-10.83;62.81
83448;BME280;73376;45.472;-73.568;2023-12-22T11:26:45;103373.00;;;-10.63;62.84
83448;BME280;73376;45.472;-73.568;2023-12-22T11:29:16;103376.50;;;-10.64;62.91
83448;BME280;73376;45.472;-73.568;2023-12-22T11:31:45;103337.16;;;-10.94;62.70
83448;BME280;73376;45.472;-73.568;2023-12-22T11:34:14;103344.13;;;-10.86;63.09
83448;BME280;73376;45.472;-73.568;2023-12-22T11:36:43;103376.56;;;-10.70;62.92
83448;BME280;73376;45.472;-73.568;2023-12-22T11:39:13;103374.81;;;-10.71;63.17
83448;BME280;73376;45.472;-73.568;2023-12-22T11:41:40;103345.88;;;-10.85;63.43
83448;BME280;73376;45.472;-73.568;2023-12-22T11:44:10;103366.88;;;-10.69;63.30
83448;BME280;73376;45.472;-73.568;2023-12-22T11:46:36;103347.63;;;-10.84;62.82
83448;BME280;73376;45.472;-73.568;2023-12-22T11:49:02;103324.91;;;-11.00;62.72
83448;BME280;73376;45.472;-73.568;2023-12-22T11:51:32;103343.31;;;-10.94;63.05
83448;BME280;73376;45.472;-73.568;2023-12-22T11:54:01;103334.56;;;-10.96;62.53
83448;BME280;73376;45.472;-73.568;2023-12-22T11:56:29;103364.31;;;-10.80;63.14
83448;BME280;73376;45.472;-73.568;2023-12-22T11:58:59;103367.03;;;-10.83;63.08
83448;BME280;73376;45.472;-73.568;2023-12-22T12:01:27;103333.69;;;-11.01;62.99
83448;BME280;73376;45.472;-73.568;2023-12-22T12:03:59;103371.44;;;-10.85;63.14
83448;BME280;73376;45.472;-73.568;2023-12-22T12:08:53;103372.25;;;-10.80;63.48
83448;BME280;73376;45.472;-73.568;2023-12-22T12:11:20;103341.63;;;-11.00;63.15
83448;BME280;73376;45.472;-73.568;2023-12-22T12:13:46;103374.03;;;-10.79;63.40
83448;BME280;73376;45.472;-73.568;2023-12-22T12:16:15;103366.16;;;-10.85;63.18
83448;BME280;73376;45.472;-73.568;2023-12-22T12:18:45;103371.38;;;-10.79;63.64
83448;BME280;73376;45.472;-73.568;2023-12-22T12:21:11;103377.53;;;-10.79;63.63
83448;BME280;73376;45.472;-73.568;2023-12-22T12:23:38;103351.25;;;-10.92;63.59
83448;BME280;73376;45.472;-73.568;2023-12-22T12:26:07;103373.22;;;-10.86;63.36
83448;BME280;73376;45.472;-73.568;2023-12-22T12:28:35;103357.44;;;-10.95;62.90
83448;BME280;73376;45.472;-73.568;2023-12-22T12:31:06;103368.00;;;-10.93;63.02
83448;BME280;73376;45.472;-73.568;2023-12-22T12:33:33;103337.28;;;-11.08;63.49
83448;BME280;73376;45.472;-73.568;2023-12-22T12:36:02;103379.34;;;-10.84;63.52